Havbugvin — XPYL — position and weather

sailwx.info

Track history (hours):
 
Tides and Currents Weather Stations Pressure Air Temp Water Temp Dewpoint Dewpoint Depression Visibility Wind Speed Wind Dir Waves Ship Positions

Havbugvin

Last reported at 2014-Oct-16 12:31 UTC. Time now 2014-Oct-22 09:36 UTC.
Position N 61°27' W 006°40'.

Length 38 m.

Type: Fishing. MMSI: 231181000.

Date/timePositionNaut miles runAvg speedWind from/ knotsBaromVisibWave heightAir tempDewpointWater temp
2014-Oct-16 12:31N 61°27' W 006°40'2 1.6
2014-Oct-16 11:10N 61°29' W 006°41'  
2014-Oct-12 23:28N 61°26' W 006°37'9 4.9
2014-Oct-12 21:33N 61°35' W 006°41'8 8.5
2014-Oct-12 20:33N 61°43' W 006°37'9 8.6
2014-Oct-12 19:33N 61°52' W 006°38'9 8.8
2014-Oct-12 18:33N 61°60' W 006°46'1 0.5
2014-Oct-12 17:33N 62°00' W 006°46'0 0.0
2014-Oct-12 16:33N 62°00' W 006°46'0 0.0
2014-Oct-12 15:33N 62°00' W 006°46'0 0.0
2014-Oct-12 14:33N 62°00' W 006°46'0 0.0
2014-Oct-12 13:33N 62°00' W 006°46'0 0.0
2014-Oct-12 12:33N 62°00' W 006°46'0 0.0
2014-Oct-12 11:33N 62°00' W 006°46'0 0.0
2014-Oct-12 10:33N 62°00' W 006°46'0 0.0
2014-Oct-12 09:33N 62°00' W 006°46'0 0.0
2014-Oct-12 08:33N 62°00' W 006°46'0 0.0
2014-Oct-12 07:33N 62°00' W 006°46'0 0.0
2014-Oct-12 06:33N 62°00' W 006°46'0 0.0
2014-Oct-12 05:33N 62°00' W 006°46'0 0.0
2014-Oct-12 04:33N 62°00' W 006°46'0 0.0
2014-Oct-12 03:33N 62°00' W 006°46'0 0.0
2014-Oct-12 02:33N 62°00' W 006°46'0 0.0
2014-Oct-12 01:33N 62°00' W 006°46'0 0.0
2014-Oct-12 00:33N 62°00' W 006°46'0 0.0
2014-Oct-11 23:33N 62°00' W 006°46'0 0.0
2014-Oct-11 22:33N 62°00' W 006°46'0 0.0
2014-Oct-11 21:33N 62°00' W 006°46'0 0.0
2014-Oct-11 20:33N 62°00' W 006°46'0 0.0
2014-Oct-11 19:33N 62°00' W 006°46'0 0.0
2014-Oct-11 18:33N 62°00' W 006°46'0 0.0
2014-Oct-11 17:33N 62°00' W 006°46'0 0.0
2014-Oct-11 16:33N 62°00' W 006°46'0 0.0
2014-Oct-11 15:33N 62°00' W 006°46'0 0.0
2014-Oct-11 14:33N 62°00' W 006°46'0 0.0
2014-Oct-11 13:33N 62°00' W 006°46'0 0.0
2014-Oct-11 12:33N 62°00' W 006°46'0 0.0
2014-Oct-11 11:33N 62°00' W 006°46'0 0.0
2014-Oct-11 10:33N 62°00' W 006°46'0 0.0
2014-Oct-11 09:33N 62°00' W 006°46'0 0.0
2014-Oct-11 08:33N 62°00' W 006°46'0 0.0
2014-Oct-11 07:33N 62°00' W 006°46'0 0.0
2014-Oct-11 06:33N 62°00' W 006°46'0 0.0
2014-Oct-11 05:33N 62°00' W 006°46'0 0.0
2014-Oct-11 04:33N 62°00' W 006°46'0 0.0
2014-Oct-11 03:33N 62°00' W 006°46'0 0.0
2014-Oct-11 02:33N 62°00' W 006°46'0 0.0
2014-Oct-11 01:33N 62°00' W 006°46'0 0.0
2014-Oct-11 00:33N 62°00' W 006°46'0 0.0
2014-Oct-10 23:33N 62°00' W 006°46'0 0.0
2014-Oct-10 22:33N 62°00' W 006°46'0 0.0
2014-Oct-10 21:33N 62°00' W 006°46'0 0.0
2014-Oct-10 20:33N 62°00' W 006°46'0 0.0
2014-Oct-10 19:33N 62°00' W 006°46'0 0.0
2014-Oct-10 18:33N 62°00' W 006°46'0 0.0
2014-Oct-10 17:33N 62°00' W 006°46'0 0.0
2014-Oct-10 16:33N 62°00' W 006°46'0 0.0
2014-Oct-10 15:33N 62°00' W 006°46'0 0.0
2014-Oct-10 14:33N 62°00' W 006°46'0 0.0
2014-Oct-10 13:33N 62°00' W 006°46'0 0.0
2014-Oct-10 12:33N 62°00' W 006°46'0 0.0
2014-Oct-10 11:33N 62°00' W 006°46'0 0.0
2014-Oct-10 10:33N 62°00' W 006°46'0 0.0
2014-Oct-10 09:33N 62°00' W 006°46'0 0.0
2014-Oct-10 08:33N 62°00' W 006°46'0 0.0
2014-Oct-10 07:33N 62°00' W 006°46'0 0.0
2014-Oct-10 06:33N 62°00' W 006°46'0 0.0
2014-Oct-10 05:33N 62°00' W 006°46'0 0.0
2014-Oct-10 04:33N 62°00' W 006°46'0 0.0
2014-Oct-10 03:33N 62°00' W 006°46'0 0.0
2014-Oct-10 02:33N 62°00' W 006°46'0 0.0
2014-Oct-10 01:33N 62°00' W 006°46'0 0.0
2014-Oct-10 00:33N 62°00' W 006°46'0 0.0
2014-Oct-09 23:33N 62°00' W 006°46'0 0.0
2014-Oct-09 22:33N 62°00' W 006°46'0 0.0
2014-Oct-09 21:33N 62°00' W 006°46'0 0.0
2014-Oct-09 20:33N 62°00' W 006°46'0 0.0
2014-Oct-09 19:33N 62°00' W 006°46'0 0.0
2014-Oct-09 18:33N 62°00' W 006°46'0 0.0
2014-Oct-09 17:33N 62°00' W 006°46'0 0.0
2014-Oct-09 16:33N 62°00' W 006°46'0 0.0
2014-Oct-09 15:33N 62°00' W 006°46'0 0.0
2014-Oct-09 14:33N 62°00' W 006°46'0 0.0
2014-Oct-09 13:33N 62°00' W 006°46'0 0.0
2014-Oct-09 12:33N 62°00' W 006°46'0 0.0
2014-Oct-09 11:20N 62°00' W 006°46'2 2.1
2014-Oct-09 10:33N 61°59' W 006°43'2 1.7
2014-Oct-09 09:33N 62°00' W 006°46'0 0.0
2014-Oct-09 08:33N 62°00' W 006°46'0 0.0
2014-Oct-09 07:33N 62°00' W 006°46'0 0.0
2014-Oct-09 06:33N 62°00' W 006°46'0 0.0
2014-Oct-09 05:33N 62°00' W 006°46'0 0.0
2014-Oct-09 04:33N 62°00' W 006°46'0 0.0
2014-Oct-09 03:34N 62°00' W 006°46'0 0.0
2014-Oct-09 02:33N 62°00' W 006°46'0 0.0
2014-Oct-09 01:33N 62°00' W 006°46'0 0.0
2014-Oct-09 00:33N 62°00' W 006°46'0 0.0
2014-Oct-08 23:33N 62°00' W 006°46'0 0.0
2014-Oct-08 22:33N 62°00' W 006°46'0 0.0
2014-Oct-08 21:33N 62°00' W 006°46'0 0.0
2014-Oct-08 20:33N 62°00' W 006°46'0 0.0
2014-Oct-08 19:33N 62°00' W 006°46'0 0.0
2014-Oct-08 18:33N 62°00' W 006°46'0 0.0
2014-Oct-08 17:33N 62°00' W 006°46'0 0.0
2014-Oct-08 16:33N 62°00' W 006°46'0 0.0
2014-Oct-08 15:33N 62°00' W 006°46'0 0.0
2014-Oct-08 14:33N 62°00' W 006°46'0 0.0
2014-Oct-08 13:33N 62°00' W 006°46'0 0.0
2014-Oct-08 12:33N 62°00' W 006°46'0 0.0
2014-Oct-08 11:33N 62°00' W 006°46'0 0.0
2014-Oct-08 10:33N 62°00' W 006°46'0 0.0
2014-Oct-08 09:33N 62°00' W 006°46'0 0.0
2014-Oct-08 08:33N 62°00' W 006°46'0 0.0
2014-Oct-08 07:33N 62°00' W 006°46'0 0.0
2014-Oct-08 06:33N 62°00' W 006°46'0 0.0
2014-Oct-08 05:33N 62°00' W 006°46'0 0.0
2014-Oct-08 04:33N 62°00' W 006°46'0 0.0
2014-Oct-08 03:33N 62°00' W 006°46'0 0.0
2014-Oct-08 02:33N 62°00' W 006°46'0 0.0
2014-Oct-08 01:33N 62°00' W 006°46'0 0.0
2014-Oct-08 00:34N 62°00' W 006°46'0 0.0
2014-Oct-07 23:33N 62°00' W 006°46'0 0.0
2014-Oct-07 22:33N 62°00' W 006°46'0 0.0
2014-Oct-07 21:33N 62°00' W 006°46'0 0.0
2014-Oct-07 20:33N 62°00' W 006°46'0 0.0
2014-Oct-07 19:33N 62°00' W 006°46'0 0.0
2014-Oct-07 18:33N 62°00' W 006°46'0 0.0
2014-Oct-07 17:33N 62°00' W 006°46'0 0.0
2014-Oct-07 16:33N 62°00' W 006°46'0 0.0
2014-Oct-07 15:33N 62°00' W 006°46'0 0.0
2014-Oct-07 14:33N 62°00' W 006°46'0 0.0
2014-Oct-07 13:33N 62°00' W 006°46'0 0.0
2014-Oct-07 12:33N 62°00' W 006°46'0 0.2
2014-Oct-07 11:33N 62°00' W 006°46'5 4.6
2014-Oct-07 10:33N 61°56' W 006°45'8 8.4
2014-Oct-07 09:33N 62°01' W 006°58'16 7.8
2014-Oct-07 07:29N 62°15' W 007°17'23 5.9
2014-Oct-07 03:33N 62°38' W 007°16'1 0.8
2014-Oct-07 02:33N 62°38' W 007°14'2 1.9
2014-Oct-07 01:32N 62°38' W 007°18'1 0.6
2014-Oct-07 00:31N 62°38' W 007°17'2 0.9
2014-Oct-06 22:33N 62°40' W 007°16'2 0.5
2014-Oct-06 18:17N 62°39' W 007°20'2 1.3
2014-Oct-06 16:19N 62°37' W 007°15'1 1.2
2014-Oct-06 15:31N 62°37' W 007°17'  
Track history (hours):
 
Tides and Currents Weather Stations Pressure Air Temp Water Temp Dewpoint Dewpoint Depression Visibility Wind Speed Wind Dir Waves Ship Positions

Havbugvin

Last reported at 2014-Oct-16 12:31 UTC. Time now 2014-Oct-22 09:36 UTC.
Position N 61°27' W 006°40'.

Length 38 m.

Type: Fishing. MMSI: 231181000.

Date/timePositionNaut miles runAvg speedWind from/ knotsBaromVisibWave heightAir tempDewpointWater temp
2014-Oct-16 12:31N 61°27' W 006°40'2 1.6
2014-Oct-16 11:10N 61°29' W 006°41'  
2014-Oct-12 23:28N 61°26' W 006°37'9 4.9
2014-Oct-12 21:33N 61°35' W 006°41'8 8.5
2014-Oct-12 20:33N 61°43' W 006°37'9 8.6
2014-Oct-12 19:33N 61°52' W 006°38'9 8.8
2014-Oct-12 18:33N 61°60' W 006°46'1 0.5
2014-Oct-12 17:33N 62°00' W 006°46'0 0.0
2014-Oct-12 16:33N 62°00' W 006°46'0 0.0
2014-Oct-12 15:33N 62°00' W 006°46'0 0.0
2014-Oct-12 14:33N 62°00' W 006°46'0 0.0
2014-Oct-12 13:33N 62°00' W 006°46'0 0.0
2014-Oct-12 12:33N 62°00' W 006°46'0 0.0
2014-Oct-12 11:33N 62°00' W 006°46'0 0.0
2014-Oct-12 10:33N 62°00' W 006°46'0 0.0
2014-Oct-12 09:33N 62°00' W 006°46'0 0.0
2014-Oct-12 08:33N 62°00' W 006°46'0 0.0
2014-Oct-12 07:33N 62°00' W 006°46'0 0.0
2014-Oct-12 06:33N 62°00' W 006°46'0 0.0
2014-Oct-12 05:33N 62°00' W 006°46'0 0.0
2014-Oct-12 04:33N 62°00' W 006°46'0 0.0
2014-Oct-12 03:33N 62°00' W 006°46'0 0.0
2014-Oct-12 02:33N 62°00' W 006°46'0 0.0
2014-Oct-12 01:33N 62°00' W 006°46'0 0.0
2014-Oct-12 00:33N 62°00' W 006°46'0 0.0
2014-Oct-11 23:33N 62°00' W 006°46'0 0.0
2014-Oct-11 22:33N 62°00' W 006°46'0 0.0
2014-Oct-11 21:33N 62°00' W 006°46'0 0.0
2014-Oct-11 20:33N 62°00' W 006°46'0 0.0
2014-Oct-11 19:33N 62°00' W 006°46'0 0.0
2014-Oct-11 18:33N 62°00' W 006°46'0 0.0
2014-Oct-11 17:33N 62°00' W 006°46'0 0.0
2014-Oct-11 16:33N 62°00' W 006°46'0 0.0
2014-Oct-11 15:33N 62°00' W 006°46'0 0.0
2014-Oct-11 14:33N 62°00' W 006°46'0 0.0
2014-Oct-11 13:33N 62°00' W 006°46'0 0.0
2014-Oct-11 12:33N 62°00' W 006°46'0 0.0
2014-Oct-11 11:33N 62°00' W 006°46'0 0.0
2014-Oct-11 10:33N 62°00' W 006°46'0 0.0
2014-Oct-11 09:33N 62°00' W 006°46'0 0.0
2014-Oct-11 08:33N 62°00' W 006°46'0 0.0
2014-Oct-11 07:33N 62°00' W 006°46'0 0.0
2014-Oct-11 06:33N 62°00' W 006°46'0 0.0
2014-Oct-11 05:33N 62°00' W 006°46'0 0.0
2014-Oct-11 04:33N 62°00' W 006°46'0 0.0
2014-Oct-11 03:33N 62°00' W 006°46'0 0.0
2014-Oct-11 02:33N 62°00' W 006°46'0 0.0
2014-Oct-11 01:33N 62°00' W 006°46'0 0.0
2014-Oct-11 00:33N 62°00' W 006°46'0 0.0
2014-Oct-10 23:33N 62°00' W 006°46'0 0.0
2014-Oct-10 22:33N 62°00' W 006°46'0 0.0
2014-Oct-10 21:33N 62°00' W 006°46'0 0.0
2014-Oct-10 20:33N 62°00' W 006°46'0 0.0
2014-Oct-10 19:33N 62°00' W 006°46'0 0.0
2014-Oct-10 18:33N 62°00' W 006°46'0 0.0
2014-Oct-10 17:33N 62°00' W 006°46'0 0.0
2014-Oct-10 16:33N 62°00' W 006°46'0 0.0
2014-Oct-10 15:33N 62°00' W 006°46'0 0.0
2014-Oct-10 14:33N 62°00' W 006°46'0 0.0
2014-Oct-10 13:33N 62°00' W 006°46'0 0.0
2014-Oct-10 12:33N 62°00' W 006°46'0 0.0
2014-Oct-10 11:33N 62°00' W 006°46'0 0.0
2014-Oct-10 10:33N 62°00' W 006°46'0 0.0
2014-Oct-10 09:33N 62°00' W 006°46'0 0.0
2014-Oct-10 08:33N 62°00' W 006°46'0 0.0
2014-Oct-10 07:33N 62°00' W 006°46'0 0.0
2014-Oct-10 06:33N 62°00' W 006°46'0 0.0
2014-Oct-10 05:33N 62°00' W 006°46'0 0.0
2014-Oct-10 04:33N 62°00' W 006°46'0 0.0
2014-Oct-10 03:33N 62°00' W 006°46'0 0.0
2014-Oct-10 02:33N 62°00' W 006°46'0 0.0
2014-Oct-10 01:33N 62°00' W 006°46'0 0.0
2014-Oct-10 00:33N 62°00' W 006°46'0 0.0
2014-Oct-09 23:33N 62°00' W 006°46'0 0.0
2014-Oct-09 22:33N 62°00' W 006°46'0 0.0
2014-Oct-09 21:33N 62°00' W 006°46'0 0.0
2014-Oct-09 20:33N 62°00' W 006°46'0 0.0
2014-Oct-09 19:33N 62°00' W 006°46'0 0.0
2014-Oct-09 18:33N 62°00' W 006°46'0 0.0
2014-Oct-09 17:33N 62°00' W 006°46'0 0.0
2014-Oct-09 16:33N 62°00' W 006°46'0 0.0
2014-Oct-09 15:33N 62°00' W 006°46'0 0.0
2014-Oct-09 14:33N 62°00' W 006°46'0 0.0
2014-Oct-09 13:33N 62°00' W 006°46'0 0.0
2014-Oct-09 12:33N 62°00' W 006°46'0 0.0
2014-Oct-09 11:20N 62°00' W 006°46'2 2.1
2014-Oct-09 10:33N 61°59' W 006°43'2 1.7
2014-Oct-09 09:33N 62°00' W 006°46'0 0.0
2014-Oct-09 08:33N 62°00' W 006°46'0 0.0
2014-Oct-09 07:33N 62°00' W 006°46'0 0.0
2014-Oct-09 06:33N 62°00' W 006°46'0 0.0
2014-Oct-09 05:33N 62°00' W 006°46'0 0.0
2014-Oct-09 04:33N 62°00' W 006°46'0 0.0
2014-Oct-09 03:34N 62°00' W 006°46'0 0.0
2014-Oct-09 02:33N 62°00' W 006°46'0 0.0
2014-Oct-09 01:33N 62°00' W 006°46'0 0.0
2014-Oct-09 00:33N 62°00' W 006°46'0 0.0
2014-Oct-08 23:33N 62°00' W 006°46'0 0.0
2014-Oct-08 22:33N 62°00' W 006°46'0 0.0
2014-Oct-08 21:33N 62°00' W 006°46'0 0.0
2014-Oct-08 20:33N 62°00' W 006°46'0 0.0
2014-Oct-08 19:33N 62°00' W 006°46'0 0.0
2014-Oct-08 18:33N 62°00' W 006°46'0 0.0
2014-Oct-08 17:33N 62°00' W 006°46'0 0.0
2014-Oct-08 16:33N 62°00' W 006°46'0 0.0
2014-Oct-08 15:33N 62°00' W 006°46'0 0.0
2014-Oct-08 14:33N 62°00' W 006°46'0 0.0
2014-Oct-08 13:33N 62°00' W 006°46'0 0.0
2014-Oct-08 12:33N 62°00' W 006°46'0 0.0
2014-Oct-08 11:33N 62°00' W 006°46'0 0.0
2014-Oct-08 10:33N 62°00' W 006°46'0 0.0
2014-Oct-08 09:33N 62°00' W 006°46'0 0.0
2014-Oct-08 08:33N 62°00' W 006°46'0 0.0
2014-Oct-08 07:33N 62°00' W 006°46'0 0.0
2014-Oct-08 06:33N 62°00' W 006°46'0 0.0
2014-Oct-08 05:33N 62°00' W 006°46'0 0.0
2014-Oct-08 04:33N 62°00' W 006°46'0 0.0
2014-Oct-08 03:33N 62°00' W 006°46'0 0.0
2014-Oct-08 02:33N 62°00' W 006°46'0 0.0
2014-Oct-08 01:33N 62°00' W 006°46'0 0.0
2014-Oct-08 00:34N 62°00' W 006°46'0 0.0
2014-Oct-07 23:33N 62°00' W 006°46'0 0.0
2014-Oct-07 22:33N 62°00' W 006°46'0 0.0
2014-Oct-07 21:33N 62°00' W 006°46'0 0.0
2014-Oct-07 20:33N 62°00' W 006°46'0 0.0
2014-Oct-07 19:33N 62°00' W 006°46'0 0.0
2014-Oct-07 18:33N 62°00' W 006°46'0 0.0
2014-Oct-07 17:33N 62°00' W 006°46'0 0.0
2014-Oct-07 16:33N 62°00' W 006°46'0 0.0
2014-Oct-07 15:33N 62°00' W 006°46'0 0.0
2014-Oct-07 14:33N 62°00' W 006°46'0 0.0
2014-Oct-07 13:33N 62°00' W 006°46'0 0.0
2014-Oct-07 12:33N 62°00' W 006°46'0 0.2
2014-Oct-07 11:33N 62°00' W 006°46'5 4.6
2014-Oct-07 10:33N 61°56' W 006°45'8 8.4
2014-Oct-07 09:33N 62°01' W 006°58'16 7.8
2014-Oct-07 07:29N 62°15' W 007°17'23 5.9
2014-Oct-07 03:33N 62°38' W 007°16'1 0.8
2014-Oct-07 02:33N 62°38' W 007°14'2 1.9
2014-Oct-07 01:32N 62°38' W 007°18'1 0.6
2014-Oct-07 00:31N 62°38' W 007°17'2 0.9
2014-Oct-06 22:33N 62°40' W 007°16'2 0.5
2014-Oct-06 18:17N 62°39' W 007°20'2 1.3
2014-Oct-06 16:19N 62°37' W 007°15'1 1.2
2014-Oct-06 15:31N 62°37' W 007°17'  

Dump ship's entire track history